sensor_id;sensor_type;location;lat;lon;timestamp;temperature;humidity
15384;DHT22;7790;53.022;12.968;2023-03-01T00:03:38;19.80;36.10
15384;DHT22;7790;53.022;12.968;2023-03-01T00:07:39;19.90;35.90
15384;DHT22;7790;53.022;12.968;2023-03-01T00:11:40;20.00;35.90
15384;DHT22;7790;53.022;12.968;2023-03-01T00:15:41;20.00;35.70
15384;DHT22;7790;53.022;12.968;2023-03-01T00:19:42;20.10;35.80
15384;DHT22;7790;53.022;12.968;2023-03-01T00:23:43;20.10;35.80
15384;DHT22;7790;53.022;12.968;2023-03-01T00:27:43;20.10;35.70
15384;DHT22;7790;53.022;12.968;2023-03-01T00:31:44;20.10;35.70
15384;DHT22;7790;53.022;12.968;2023-03-01T00:35:45;20.10;35.70
15384;DHT22;7790;53.022;12.968;2023-03-01T00:39:46;20.20;35.70
15384;DHT22;7790;53.022;12.968;2023-03-01T00:43:48;20.20;35.70
15384;DHT22;7790;53.022;12.968;2023-03-01T00:47:50;20.20;35.70
15384;DHT22;7790;53.022;12.968;2023-03-01T00:51:51;20.20;35.70
15384;DHT22;7790;53.022;12.968;2023-03-01T00:55:52;20.20;35.50
15384;DHT22;7790;53.022;12.968;2023-03-01T00:59:53;20.20;35.50
15384;DHT22;7790;53.022;12.968;2023-03-01T01:04:03;20.10;35.50
15384;DHT22;7790;53.022;12.968;2023-03-01T01:08:04;20.10;35.80
15384;DHT22;7790;53.022;12.968;2023-03-01T01:12:05;20.00;35.90
15384;DHT22;7790;53.022;12.968;2023-03-01T01:16:08;20.00;35.90
15384;DHT22;7790;53.022;12.968;2023-03-01T01:20:09;19.90;36.10
15384;DHT22;7790;53.022;12.968;2023-03-01T01:24:11;19.90;35.90
15384;DHT22;7790;53.022;12.968;2023-03-01T01:28:12;19.90;35.80
15384;DHT22;7790;53.022;12.968;2023-03-01T01:32:13;19.90;35.70
15384;DHT22;7790;53.022;12.968;2023-03-01T01:36:14;20.00;35.80
15384;DHT22;7790;53.022;12.968;2023-03-01T01:40:15;20.00;35.80
15384;DHT22;7790;53.022;12.968;2023-03-01T01:44:22;20.10;35.80
15384;DHT22;7790;53.022;12.968;2023-03-01T01:48:41;20.10;35.60
15384;DHT22;7790;53.022;12.968;2023-03-01T01:52:42;20.10;35.60
15384;DHT22;7790;53.022;12.968;2023-03-01T01:56:48;20.20;35.50
15384;DHT22;7790;53.022;12.968;2023-03-01T02:00:50;20.30;35.40
15384;DHT22;7790;53.022;12.968;2023-03-01T02:04:58;20.20;35.20
15384;DHT22;7790;53.022;12.968;2023-03-01T02:09:12;20.20;35.30
15384;DHT22;7790;53.022;12.968;2023-03-01T02:13:13;20.30;35.30
15384;DHT22;7790;53.022;12.968;2023-03-01T02:17:16;20.30;35.10
15384;DHT22;7790;53.022;12.968;2023-03-01T02:25:47;20.20;35.00
15384;DHT22;7790;53.022;12.968;2023-03-01T02:29:50;20.30;35.00
15384;DHT22;7790;53.022;12.968;2023-03-01T02:33:53;20.20;34.70
15384;DHT22;7790;53.022;12.968;2023-03-01T02:37:54;20.20;34.80
15384;DHT22;7790;53.022;12.968;2023-03-01T02:41:57;20.20;34.80
15384;DHT22;7790;53.022;12.968;2023-03-01T02:46:15;20.20;34.70
15384;DHT22;7790;53.022;12.968;2023-03-01T02:55:09;20.20;34.80
15384;DHT22;7790;53.022;12.968;2023-03-01T02:59:11;20.20;34.90
15384;DHT22;7790;53.022;12.968;2023-03-01T03:03:17;20.20;34.70
15384;DHT22;7790;53.022;12.968;2023-03-01T03:07:19;20.20;34.60
15384;DHT22;7790;53.022;12.968;2023-03-01T03:11:20;20.20;34.80
15384;DHT22;7790;53.022;12.968;2023-03-01T03:15:22;20.20;34.90
15384;DHT22;7790;53.022;12.968;2023-03-01T03:19:23;20.20;34.90
15384;DHT22;7790;53.022;12.968;2023-03-01T03:23:24;20.20;35.20
15384;DHT22;7790;53.022;12.968;2023-03-01T03:27:25;20.20;34.80
15384;DHT22;7790;53.022;12.968;2023-03-01T03:31:26;20.20;34.60
15384;DHT22;7790;53.022;12.968;2023-03-01T03:35:33;20.20;35.20
15384;DHT22;7790;53.022;12.968;2023-03-01T03:39:34;20.20;34.80
15384;DHT22;7790;53.022;12.968;2023-03-01T03:43:37;20.20;34.80
15384;DHT22;7790;53.022;12.968;2023-03-01T03:47:38;20.20;34.80
15384;DHT22;7790;53.022;12.968;2023-03-01T03:51:39;20.20;34.70
15384;DHT22;7790;53.022;12.968;2023-03-01T03:55:40;20.20;34.80
15384;DHT22;7790;53.022;12.968;2023-03-01T03:59:40;20.20;34.80
15384;DHT22;7790;53.022;12.968;2023-03-01T04:03:41;20.10;34.70
15384;DHT22;7790;53.022;12.968;2023-03-01T04:07:47;20.10;34.70
15384;DHT22;7790;53.022;12.968;2023-03-01T04:11:47;20.20;34.60
15384;DHT22;7790;53.022;12.968;2023-03-01T04:15:52;20.20;34.70
15384;DHT22;7790;53.022;12.968;2023-03-01T04:19:53;20.10;34.70
15384;DHT22;7790;53.022;12.968;2023-03-01T04:23:54;20.20;35.30
15384;DHT22;7790;53.022;12.968;2023-03-01T04:27:55;20.20;34.70
15384;DHT22;7790;53.022;12.968;2023-03-01T04:31:56;20.20;34.80
15384;DHT22;7790;53.022;12.968;2023-03-01T04:35:57;20.20;34.60
15384;DHT22;7790;53.022;12.968;2023-03-01T04:39:58;20.20;34.70
15384;DHT22;7790;53.022;12.968;2023-03-01T04:43:59;20.20;34.70
15384;DHT22;7790;53.022;12.968;2023-03-01T04:48:00;20.20;34.70
15384;DHT22;7790;53.022;12.968;2023-03-01T04:52:02;20.20;34.80
15384;DHT22;7790;53.022;12.968;2023-03-01T04:56:04;20.20;34.60
15384;DHT22;7790;53.022;12.968;2023-03-01T05:00:07;20.20;34.50
15384;DHT22;7790;53.022;12.968;2023-03-01T05:04:20;20.20;34.40
15384;DHT22;7790;53.022;12.968;2023-03-01T05:08:21;20.20;34.40
15384;DHT22;7790;53.022;12.968;2023-03-01T05:12:22;20.10;34.30
15384;DHT22;7790;53.022;12.968;2023-03-01T05:16:23;20.20;34.30
15384;DHT22;7790;53.022;12.968;2023-03-01T05:20:24;20.20;34.30
15384;DHT22;7790;53.022;12.968;2023-03-01T05:24:25;20.20;34.20
15384;DHT22;7790;53.022;12.968;2023-03-01T05:28:27;20.20;34.30
15384;DHT22;7790;53.022;12.968;2023-03-01T05:32:31;20.20;34.30
15384;DHT22;7790;53.022;12.968;2023-03-01T05:36:32;20.20;34.20
15384;DHT22;7790;53.022;12.968;2023-03-01T05:40:34;20.20;34.30
15384;DHT22;7790;53.022;12.968;2023-03-01T05:44:35;20.20;34.40
15384;DHT22;7790;53.022;12.968;2023-03-01T05:48:36;20.20;34.40
15384;DHT22;7790;53.022;12.968;2023-03-01T05:52:36;20.20;34.40
15384;DHT22;7790;53.022;12.968;2023-03-01T05:56:37;20.20;34.70
15384;DHT22;7790;53.022;12.968;2023-03-01T06:00:38;20.30;33.70
15384;DHT22;7790;53.022;12.968;2023-03-01T06:04:39;20.40;33.30
15384;DHT22;7790;53.022;12.968;2023-03-01T06:08:40;20.40;33.20
15384;DHT22;7790;53.022;12.968;2023-03-01T06:12:42;20.40;33.10
15384;DHT22;7790;53.022;12.968;2023-03-01T06:16:43;20.40;33.10
15384;DHT22;7790;53.022;12.968;2023-03-01T06:20:43;20.40;33.00
15384;DHT22;7790;53.022;12.968;2023-03-01T06:24:44;20.40;33.10
15384;DHT22;7790;53.022;12.968;2023-03-01T06:28:45;20.50;33.10
15384;DHT22;7790;53.022;12.968;2023-03-01T06:32:46;20.50;33.60
15384;DHT22;7790;53.022;12.968;2023-03-01T06:36:47;20.50;33.10
15384;DHT22;7790;53.022;12.968;2023-03-01T06:40:53;20.50;33.80
15384;DHT22;7790;53.022;12.968;2023-03-01T06:44:54;20.60;34.20
15384;DHT22;7790;53.022;12.968;2023-03-01T06:48:56;20.60;33.40
15384;DHT22;7790;53.022;12.968;2023-03-01T06:52:57;20.60;33.90
15384;DHT22;7790;53.022;12.968;2023-03-01T06:56:58;20.60;33.40
15384;DHT22;7790;53.022;12.968;2023-03-01T07:00:59;20.50;33.40
15384;DHT22;7790;53.022;12.968;2023-03-01T07:05:00;20.50;33.30
15384;DHT22;7790;53.022;12.968;2023-03-01T07:09:01;20.50;33.30
15384;DHT22;7790;53.022;12.968;2023-03-01T07:13:02;20.60;33.30
15384;DHT22;7790;53.022;12.968;2023-03-01T07:17:03;20.60;33.20
15384;DHT22;7790;53.022;12.968;2023-03-01T07:21:08;20.60;33.20
15384;DHT22;7790;53.022;12.968;2023-03-01T07:25:10;20.60;33.30
15384;DHT22;7790;53.022;12.968;2023-03-01T07:29:11;20.60;33.20
15384;DHT22;7790;53.022;12.968;2023-03-01T07:33:12;20.70;33.20
15384;DHT22;7790;53.022;12.968;2023-03-01T07:37:12;20.70;33.10
15384;DHT22;7790;53.022;12.968;2023-03-01T07:41:13;20.70;33.20
15384;DHT22;7790;53.022;12.968;2023-03-01T07:45:14;20.60;33.10
15384;DHT22;7790;53.022;12.968;2023-03-01T07:49:15;20.60;33.10
15384;DHT22;7790;53.022;12.968;2023-03-01T07:53:16;20.60;33.10
15384;DHT22;7790;53.022;12.968;2023-03-01T07:57:17;20.70;33.70
15384;DHT22;7790;53.022;12.968;2023-03-01T08:01:19;20.60;33.10
15384;DHT22;7790;53.022;12.968;2023-03-01T08:05:20;20.60;33.20
15384;DHT22;7790;53.022;12.968;2023-03-01T08:09:22;20.70;33.20
15384;DHT22;7790;53.022;12.968;2023-03-01T08:13:23;20.70;33.10
15384;DHT22;7790;53.022;12.968;2023-03-01T08:17:24;20.70;33.10
15384;DHT22;7790;53.022;12.968;2023-03-01T08:21:25;20.70;33.10
15384;DHT22;7790;53.022;12.968;2023-03-01T08:25:26;20.70;33.10
15384;DHT22;7790;53.022;12.968;2023-03-01T08:29:26;20.70;33.10
15384;DHT22;7790;53.022;12.968;2023-03-01T08:33:28;20.60;33.10
15384;DHT22;7790;53.022;12.968;2023-03-01T08:37:29;20.60;33.30
15384;DHT22;7790;53.022;12.968;2023-03-01T08:41:31;20.60;33.30
15384;DHT22;7790;53.022;12.968;2023-03-01T08:45:32;20.60;33.30
15384;DHT22;7790;53.022;12.968;2023-03-01T08:49:33;20.70;33.30
15384;DHT22;7790;53.022;12.968;2023-03-01T08:53:34;20.70;33.30
15384;DHT22;7790;53.022;12.968;2023-03-01T08:57:35;20.60;33.80
15384;DHT22;7790;53.022;12.968;2023-03-01T09:01:36;20.60;33.90
15384;DHT22;7790;53.022;12.968;2023-03-01T09:05:37;20.70;34.00
15384;DHT22;7790;53.022;12.968;2023-03-01T09:09:38;20.80;34.20
15384;DHT22;7790;53.022;12.968;2023-03-01T09:13:39;20.90;34.70
15384;DHT22;7790;53.022;12.968;2023-03-01T09:17:40;20.90;35.00
15384;DHT22;7790;53.022;12.968;2023-03-01T09:21:41;20.90;34.40
15384;DHT22;7790;53.022;12.968;2023-03-01T09:25:42;21.00;34.40
15384;DHT22;7790;53.022;12.968;2023-03-01T09:29:43;21.20;34.30
15384;DHT22;7790;53.022;12.968;2023-03-01T09:33:46;21.30;34.50
15384;DHT22;7790;53.022;12.968;2023-03-01T09:37:47;21.40;35.00
15384;DHT22;7790;53.022;12.968;2023-03-01T09:42:00;21.40;36.10
15384;DHT22;7790;53.022;12.968;2023-03-01T09:46:09;21.40;37.00
15384;DHT22;7790;53.022;12.968;2023-03-01T09:54:14;21.30;37.40
15384;DHT22;7790;53.022;12.968;2023-03-01T09:58:37;21.20;37.50
15384;DHT22;7790;53.022;12.968;2023-03-01T10:07:26;21.00;37.30
15384;DHT22;7790;53.022;12.968;2023-03-01T10:11:32;21.10;37.90
15384;DHT22;7790;53.022;12.968;2023-03-01T10:16:03;21.20;37.10
15384;DHT22;7790;53.022;12.968;2023-03-01T10:20:21;21.20;36.60
15384;DHT22;7790;53.022;12.968;2023-03-01T10:24:22;21.40;36.40
15384;DHT22;7790;53.022;12.968;2023-03-01T10:28:31;21.40;36.10
15384;DHT22;7790;53.022;12.968;2023-03-01T10:32:35;21.50;36.30
15384;DHT22;7790;53.022;12.968;2023-03-01T10:36:38;21.50;36.20
15384;DHT22;7790;53.022;12.968;2023-03-01T10:44:58;21.60;36.20
15384;DHT22;7790;53.022;12.968;2023-03-01T10:49:22;21.60;36.00
15384;DHT22;7790;53.022;12.968;2023-03-01T10:53:42;21.60;35.60
15384;DHT22;7790;53.022;12.968;2023-03-01T10:57:43;21.40;35.20
15384;DHT22;7790;53.022;12.968;2023-03-01T11:01:44;21.10;34.90
15384;DHT22;7790;53.022;12.968;2023-03-01T11:06:06;20.60;32.70
15384;DHT22;7790;53.022;12.968;2023-03-01T11:10:25;19.90;32.50
15384;DHT22;7790;53.022;12.968;2023-03-01T11:14:35;20.10;33.30
15384;DHT22;7790;53.022;12.968;2023-03-01T11:18:36;20.00;32.80
15384;DHT22;7790;53.022;12.968;2023-03-01T11:22:42;19.90;32.70
15384;DHT22;7790;53.022;12.968;2023-03-01T11:26:51;19.90;32.80
15384;DHT22;7790;53.022;12.968;2023-03-01T11:31:10;19.80;33.10
15384;DHT22;7790;53.022;12.968;2023-03-01T11:35:19;19.70;33.10
15384;DHT22;7790;53.022;12.968;2023-03-01T11:39:41;19.60;32.90
15384;DHT22;7790;53.022;12.968;2023-03-01T11:43:59;19.40;33.00
15384;DHT22;7790;53.022;12.968;2023-03-01T11:48:22;19.50;35.00
15384;DHT22;7790;53.022;12.968;2023-03-01T11:56:43;19.30;33.90
15384;DHT22;7790;53.022;12.968;2023-03-01T12:05:47;19.20;34.50
15384;DHT22;7790;53.022;12.968;2023-03-01T12:23:02;19.60;35.30
15384;DHT22;7790;53.022;12.968;2023-03-01T12:31:48;19.10;35.00
15384;DHT22;7790;53.022;12.968;2023-03-01T12:36:06;19.20;36.30
15384;DHT22;7790;53.022;12.968;2023-03-01T12:44:51;19.50;36.70
15384;DHT22;7790;53.022;12.968;2023-03-01T12:53:03;19.40;37.00
15384;DHT22;7790;53.022;12.968;2023-03-01T13:10:21;19.30;37.00
15384;DHT22;7790;53.022;12.968;2023-03-01T13:18:28;19.20;37.10
15384;DHT22;7790;53.022;12.968;2023-03-01T13:22:32;19.20;37.20
15384;DHT22;7790;53.022;12.968;2023-03-01T13:31:11;19.20;37.30
15384;DHT22;7790;53.022;12.968;2023-03-01T13:35:42;19.10;37.40
15384;DHT22;7790;53.022;12.968;2023-03-01T13:39:44;19.10;37.40
15384;DHT22;7790;53.022;12.968;2023-03-01T13:43:46;19.10;37.40
15384;DHT22;7790;53.022;12.968;2023-03-01T13:47:52;19.10;37.40
15384;DHT22;7790;53.022;12.968;2023-03-01T13:51:54;19.00;37.40
15384;DHT22;7790;53.022;12.968;2023-03-01T13:56:00;19.00;37.30
15384;DHT22;7790;53.022;12.968;2023-03-01T14:00:03;19.00;37.50
15384;DHT22;7790;53.022;12.968;2023-03-01T14:04:23;19.00;37.50
15384;DHT22;7790;53.022;12.968;2023-03-01T14:08:26;18.90;37.50
15384;DHT22;7790;53.022;12.968;2023-03-01T14:12:51;18.90;37.50
15384;DHT22;7790;53.022;12.968;2023-03-01T14:17:50;18.90;37.60
15384;DHT22;7790;53.022;12.968;2023-03-01T14:21:42;18.80;37.60
15384;DHT22;7790;53.022;12.968;2023-03-01T14:25:53;18.80;37.50
15384;DHT22;7790;53.022;12.968;2023-03-01T14:30:00;18.80;37.60
15384;DHT22;7790;53.022;12.968;2023-03-01T14:34:01;18.80;37.60
15384;DHT22;7790;53.022;12.968;2023-03-01T14:38:03;18.80;37.50
15384;DHT22;7790;53.022;12.968;2023-03-01T14:42:05;18.80;37.50
15384;DHT22;7790;53.022;12.968;2023-03-01T14:46:06;18.70;37.50
15384;DHT22;7790;53.022;12.968;2023-03-01T14:54:29;18.70;37.40
15384;DHT22;7790;53.022;12.968;2023-03-01T14:58:33;18.70;37.50
15384;DHT22;7790;53.022;12.968;2023-03-01T15:02:34;18.70;37.40
15384;DHT22;7790;53.022;12.968;2023-03-01T15:06:35;18.60;37.40
15384;DHT22;7790;53.022;12.968;2023-03-01T15:10:37;18.60;37.40
15384;DHT22;7790;53.022;12.968;2023-03-01T15:14:42;18.60;37.40
15384;DHT22;7790;53.022;12.968;2023-03-01T15:18:51;18.50;37.40
15384;DHT22;7790;53.022;12.968;2023-03-01T15:22:55;18.50;37.40
15384;DHT22;7790;53.022;12.968;2023-03-01T15:26:59;18.50;37.50
15384;DHT22;7790;53.022;12.968;2023-03-01T15:31:20;18.50;37.50
15384;DHT22;7790;53.022;12.968;2023-03-01T15:35:41;18.50;37.50
15384;DHT22;7790;53.022;12.968;2023-03-01T15:39:52;18.50;37.50
15384;DHT22;7790;53.022;12.968;2023-03-01T15:43:54;18.40;37.50
15384;DHT22;7790;53.022;12.968;2023-03-01T15:48:17;18.40;37.40
15384;DHT22;7790;53.022;12.968;2023-03-01T15:52:29;18.40;37.50
15384;DHT22;7790;53.022;12.968;2023-03-01T15:56:32;18.40;37.50
15384;DHT22;7790;53.022;12.968;2023-03-01T16:00:33;18.40;37.50
15384;DHT22;7790;53.022;12.968;2023-03-01T16:04:34;18.30;37.30
15384;DHT22;7790;53.022;12.968;2023-03-01T16:08:34;18.30;37.30
15384;DHT22;7790;53.022;12.968;2023-03-01T16:12:35;18.20;37.40
15384;DHT22;7790;53.022;12.968;2023-03-01T16:16:36;18.20;37.30
15384;DHT22;7790;53.022;12.968;2023-03-01T16:20:37;18.30;37.30
15384;DHT22;7790;53.022;12.968;2023-03-01T16:24:38;18.40;37.10
15384;DHT22;7790;53.022;12.968;2023-03-01T16:28:40;18.40;37.10
15384;DHT22;7790;53.022;12.968;2023-03-01T16:32:43;18.50;37.20
15384;DHT22;7790;53.022;12.968;2023-03-01T16:36:44;18.50;37.10
15384;DHT22;7790;53.022;12.968;2023-03-01T16:40:50;18.40;37.00
15384;DHT22;7790;53.022;12.968;2023-03-01T16:44:57;18.50;37.20
15384;DHT22;7790;53.022;12.968;2023-03-01T16:48:58;18.50;37.10
15384;DHT22;7790;53.022;12.968;2023-03-01T16:52:59;18.50;37.10
15384;DHT22;7790;53.022;12.968;2023-03-01T16:57:00;18.50;37.10
15384;DHT22;7790;53.022;12.968;2023-03-01T17:01:09;18.50;37.60
15384;DHT22;7790;53.022;12.968;2023-03-01T17:05:11;18.30;37.80
15384;DHT22;7790;53.022;12.968;2023-03-01T17:09:12;18.30;38.00
15384;DHT22;7790;53.022;12.968;2023-03-01T17:13:13;18.20;37.70
15384;DHT22;7790;53.022;12.968;2023-03-01T17:17:14;18.10;38.10
15384;DHT22;7790;53.022;12.968;2023-03-01T17:21:15;18.20;38.10
15384;DHT22;7790;53.022;12.968;2023-03-01T17:25:16;18.30;38.20
15384;DHT22;7790;53.022;12.968;2023-03-01T17:29:17;18.40;38.00
15384;DHT22;7790;53.022;12.968;2023-03-01T17:33:19;18.50;38.00
15384;DHT22;7790;53.022;12.968;2023-03-01T17:37:20;18.60;38.00
15384;DHT22;7790;53.022;12.968;2023-03-01T17:41:21;18.70;38.00
15384;DHT22;7790;53.022;12.968;2023-03-01T17:45:24;18.70;38.60
15384;DHT22;7790;53.022;12.968;2023-03-01T17:49:25;18.90;37.60
15384;DHT22;7790;53.022;12.968;2023-03-01T17:53:26;19.10;36.80
15384;DHT22;7790;53.022;12.968;2023-03-01T17:57:27;19.30;36.70
15384;DHT22;7790;53.022;12.968;2023-03-01T18:01:27;19.50;36.30
15384;DHT22;7790;53.022;12.968;2023-03-01T18:05:34;19.60;36.30
15384;DHT22;7790;53.022;12.968;2023-03-01T18:09:36;19.70;36.30
15384;DHT22;7790;53.022;12.968;2023-03-01T18:13:37;19.70;36.10
15384;DHT22;7790;53.022;12.968;2023-03-01T18:17:39;19.80;36.20
15384;DHT22;7790;53.022;12.968;2023-03-01T18:21:40;19.70;36.10
15384;DHT22;7790;53.022;12.968;2023-03-01T18:25:41;19.70;36.10
15384;DHT22;7790;53.022;12.968;2023-03-01T18:29:41;19.70;36.20
15384;DHT22;7790;53.022;12.968;2023-03-01T18:33:46;19.60;36.20
15384;DHT22;7790;53.022;12.968;2023-03-01T18:37:47;19.60;36.10
15384;DHT22;7790;53.022;12.968;2023-03-01T18:41:49;19.60;36.20
15384;DHT22;7790;53.022;12.968;2023-03-01T18:45:59;19.60;36.30
15384;DHT22;7790;53.022;12.968;2023-03-01T18:50:00;19.60;36.30
15384;DHT22;7790;53.022;12.968;2023-03-01T18:54:02;19.60;36.20
15384;DHT22;7790;53.022;12.968;2023-03-01T18:58:03;19.60;36.40
15384;DHT22;7790;53.022;12.968;2023-03-01T19:02:04;19.60;36.50
15384;DHT22;7790;53.022;12.968;2023-03-01T19:06:05;19.80;36.20
15384;DHT22;7790;53.022;12.968;2023-03-01T19:10:06;20.00;35.90
15384;DHT22;7790;53.022;12.968;2023-03-01T19:14:08;20.40;36.00
15384;DHT22;7790;53.022;12.968;2023-03-01T19:18:09;20.50;36.20
15384;DHT22;7790;53.022;12.968;2023-03-01T19:22:10;20.60;36.20
15384;DHT22;7790;53.022;12.968;2023-03-01T19:26:14;20.80;36.20
15384;DHT22;7790;53.022;12.968;2023-03-01T19:30:15;21.00;36.20
15384;DHT22;7790;53.022;12.968;2023-03-01T19:34:16;21.10;36.10
15384;DHT22;7790;53.022;12.968;2023-03-01T19:38:17;21.20;36.20
15384;DHT22;7790;53.022;12.968;2023-03-01T19:42:18;21.30;36.10
15384;DHT22;7790;53.022;12.968;2023-03-01T19:46:19;21.40;36.10
15384;DHT22;7790;53.022;12.968;2023-03-01T19:50:20;21.40;36.10
15384;DHT22;7790;53.022;12.968;2023-03-01T19:54:21;21.40;36.20
15384;DHT22;7790;53.022;12.968;2023-03-01T19:58:23;21.40;36.40
15384;DHT22;7790;53.022;12.968;2023-03-01T20:02:23;21.40;36.40
15384;DHT22;7790;53.022;12.968;2023-03-01T20:06:24;21.40;36.40
15384;DHT22;7790;53.022;12.968;2023-03-01T20:10:28;21.30;36.50
15384;DHT22;7790;53.022;12.968;2023-03-01T20:14:29;21.30;36.50
15384;DHT22;7790;53.022;12.968;2023-03-01T20:18:31;21.20;36.40
15384;DHT22;7790;53.022;12.968;2023-03-01T20:22:32;21.20;36.60
15384;DHT22;7790;53.022;12.968;2023-03-01T20:26:32;21.10;36.40
15384;DHT22;7790;53.022;12.968;2023-03-01T20:30:33;21.10;36.50
15384;DHT22;7790;53.022;12.968;2023-03-01T20:34:36;21.00;36.60
15384;DHT22;7790;53.022;12.968;2023-03-01T20:38:37;20.90;36.60
15384;DHT22;7790;53.022;12.968;2023-03-01T20:42:38;20.90;36.60
15384;DHT22;7790;53.022;12.968;2023-03-01T20:46:39;20.90;36.50
15384;DHT22;7790;53.022;12.968;2023-03-01T20:50:40;20.80;36.60
15384;DHT22;7790;53.022;12.968;2023-03-01T20:54:41;20.80;36.50
15384;DHT22;7790;53.022;12.968;2023-03-01T20:58:42;20.70;36.60
15384;DHT22;7790;53.022;12.968;2023-03-01T21:02:44;20.70;36.20
15384;DHT22;7790;53.022;12.968;2023-03-01T21:06:45;20.60;36.10
15384;DHT22;7790;53.022;12.968;2023-03-01T21:10:51;20.60;36.00
15384;DHT22;7790;53.022;12.968;2023-03-01T21:14:53;20.60;35.90
15384;DHT22;7790;53.022;12.968;2023-03-01T21:18:53;20.50;35.70
15384;DHT22;7790;53.022;12.968;2023-03-01T21:22:54;20.60;35.70
15384;DHT22;7790;53.022;12.968;2023-03-01T21:26:55;20.50;35.50
15384;DHT22;7790;53.022;12.968;2023-03-01T21:31:01;20.60;35.50
15384;DHT22;7790;53.022;12.968;2023-03-01T21:35:01;20.60;35.50
15384;DHT22;7790;53.022;12.968;2023-03-01T21:39:03;20.70;35.40
15384;DHT22;7790;53.022;12.968;2023-03-01T21:43:08;20.60;35.60
15384;DHT22;7790;53.022;12.968;2023-03-01T21:47:08;20.50;35.70
15384;DHT22;7790;53.022;12.968;2023-03-01T21:51:11;20.50;36.00
15384;DHT22;7790;53.022;12.968;2023-03-01T21:55:12;20.40;36.10
15384;DHT22;7790;53.022;12.968;2023-03-01T21:59:16;20.40;36.20
15384;DHT22;7790;53.022;12.968;2023-03-01T22:03:17;20.40;36.20
15384;DHT22;7790;53.022;12.968;2023-03-01T22:07:18;20.40;36.00
15384;DHT22;7790;53.022;12.968;2023-03-01T22:11:20;20.40;36.10
15384;DHT22;7790;53.022;12.968;2023-03-01T22:15:21;20.40;35.90
15384;DHT22;7790;53.022;12.968;2023-03-01T22:19:22;20.40;36.10
15384;DHT22;7790;53.022;12.968;2023-03-01T22:23:23;20.30;36.80
15384;DHT22;7790;53.022;12.968;2023-03-01T22:27:24;20.20;36.90
15384;DHT22;7790;53.022;12.968;2023-03-01T22:31:26;20.20;36.50
15384;DHT22;7790;53.022;12.968;2023-03-01T22:35:27;20.20;36.20
15384;DHT22;7790;53.022;12.968;2023-03-01T22:39:29;20.30;35.90
15384;DHT22;7790;53.022;12.968;2023-03-01T22:43:31;20.30;35.70
15384;DHT22;7790;53.022;12.968;2023-03-01T22:47:34;20.30;35.90
15384;DHT22;7790;53.022;12.968;2023-03-01T22:51:38;20.20;36.00
15384;DHT22;7790;53.022;12.968;2023-03-01T22:55:40;20.10;36.00
15384;DHT22;7790;53.022;12.968;2023-03-01T22:59:41;20.10;36.20
15384;DHT22;7790;53.022;12.968;2023-03-01T23:03:41;20.10;35.80
15384;DHT22;7790;53.022;12.968;2023-03-01T23:07:42;20.20;35.60
15384;DHT22;7790;53.022;12.968;2023-03-01T23:11:44;20.20;35.40
15384;DHT22;7790;53.022;12.968;2023-03-01T23:15:45;20.20;35.20
15384;DHT22;7790;53.022;12.968;2023-03-01T23:19:51;20.30;35.20
15384;DHT22;7790;53.022;12.968;2023-03-01T23:23:55;20.30;35.00
15384;DHT22;7790;53.022;12.968;2023-03-01T23:27:56;20.30;35.10
15384;DHT22;7790;53.022;12.968;2023-03-01T23:31:58;20.30;35.10
15384;DHT22;7790;53.022;12.968;2023-03-01T23:35:59;20.30;35.30
15384;DHT22;7790;53.022;12.968;2023-03-01T23:40:03;20.20;35.30
15384;DHT22;7790;53.022;12.968;2023-03-01T23:44:05;20.20;35.40
15384;DHT22;7790;53.022;12.968;2023-03-01T23:48:06;20.10;35.60
15384;DHT22;7790;53.022;12.968;2023-03-01T23:52:11;20.00;35.50
15384;DHT22;7790;53.022;12.968;2023-03-01T23:56:12;20.00;36.10
